sensor_id;sensor_type;location;lat;lon;timestamp;pressure;altitude;pressure_sealevel;temperature;humidity
81224;BME280;70698;44.402;18.522;2023-08-08T00:01:21;97797.88;;;12.94;86.47
81224;BME280;70698;44.402;18.522;2023-08-08T00:03:46;97790.66;;;12.88;86.81
81224;BME280;70698;44.402;18.522;2023-08-08T00:06:12;97798.50;;;12.97;86.60
81224;BME280;70698;44.402;18.522;2023-08-08T00:08:38;97798.41;;;12.90;86.60
81224;BME280;70698;44.402;18.522;2023-08-08T00:11:03;97797.13;;;12.86;86.05
81224;BME280;70698;44.402;18.522;2023-08-08T00:13:29;97785.84;;;12.77;86.50
81224;BME280;70698;44.402;18.522;2023-08-08T00:15:54;97795.50;;;12.85;86.17
81224;BME280;70698;44.402;18.522;2023-08-08T00:18:20;97792.38;;;12.81;85.92
81224;BME280;70698;44.402;18.522;2023-08-08T00:20:45;97800.50;;;12.80;86.09
81224;BME280;70698;44.402;18.522;2023-08-08T00:23:11;97800.00;;;12.76;85.81
81224;BME280;70698;44.402;18.522;2023-08-08T00:25:36;97799.56;;;12.73;85.25
81224;BME280;70698;44.402;18.522;2023-08-08T00:28:03;97806.00;;;12.70;85.50
81224;BME280;70698;44.402;18.522;2023-08-08T00:30:28;97804.00;;;12.72;85.66
81224;BME280;70698;44.402;18.522;2023-08-08T00:32:54;97797.91;;;12.72;85.35
81224;BME280;70698;44.402;18.522;2023-08-08T00:35:20;97809.41;;;12.79;85.38
81224;BME280;70698;44.402;18.522;2023-08-08T00:37:46;97796.28;;;12.85;85.41
81224;BME280;70698;44.402;18.522;2023-08-08T00:40:11;97803.13;;;12.80;85.46
81224;BME280;70698;44.402;18.522;2023-08-08T00:42:37;97794.00;;;12.68;86.13
81224;BME280;70698;44.402;18.522;2023-08-08T00:45:02;97805.50;;;12.75;86.02
81224;BME280;70698;44.402;18.522;2023-08-08T00:47:33;97800.94;;;12.69;85.35
81224;BME280;70698;44.402;18.522;2023-08-08T00:50:02;97785.91;;;12.55;85.58
81224;BME280;70698;44.402;18.522;2023-08-08T00:52:28;97792.44;;;12.59;85.57
81224;BME280;70698;44.402;18.522;2023-08-08T00:54:55;97797.56;;;12.60;85.22
81224;BME280;70698;44.402;18.522;2023-08-08T00:57:21;97787.00;;;12.60;85.16
81224;BME280;70698;44.402;18.522;2023-08-08T00:59:46;97790.97;;;12.56;84.31
81224;BME280;70698;44.402;18.522;2023-08-08T01:02:14;97805.19;;;12.55;84.39
81224;BME280;70698;44.402;18.522;2023-08-08T01:04:40;97804.53;;;12.53;84.35
81224;BME280;70698;44.402;18.522;2023-08-08T01:07:12;97795.63;;;12.54;83.79
81224;BME280;70698;44.402;18.522;2023-08-08T01:09:50;97795.09;;;12.59;83.77
81224;BME280;70698;44.402;18.522;2023-08-08T01:12:18;97810.97;;;12.50;83.61
81224;BME280;70698;44.402;18.522;2023-08-08T01:14:44;97818.88;;;12.50;84.07
81224;BME280;70698;44.402;18.522;2023-08-08T01:17:11;97815.06;;;12.53;83.96
81224;BME280;70698;44.402;18.522;2023-08-08T01:19:38;97807.25;;;12.45;84.48
81224;BME280;70698;44.402;18.522;2023-08-08T01:22:06;97820.88;;;12.48;84.83
81224;BME280;70698;44.402;18.522;2023-08-08T01:24:33;97807.59;;;12.42;85.45
81224;BME280;70698;44.402;18.522;2023-08-08T01:27:02;97798.94;;;12.33;85.04
81224;BME280;70698;44.402;18.522;2023-08-08T01:29:28;97801.16;;;12.22;85.77
81224;BME280;70698;44.402;18.522;2023-08-08T01:31:54;97806.19;;;12.31;85.28
81224;BME280;70698;44.402;18.522;2023-08-08T01:34:20;97802.44;;;12.26;85.39
81224;BME280;70698;44.402;18.522;2023-08-08T01:36:55;97801.44;;;12.27;85.51
81224;BME280;70698;44.402;18.522;2023-08-08T01:39:27;97813.34;;;12.23;85.54
81224;BME280;70698;44.402;18.522;2023-08-08T01:41:55;97818.69;;;12.15;85.81
81224;BME280;70698;44.402;18.522;2023-08-08T01:44:21;97818.84;;;12.13;85.45
81224;BME280;70698;44.402;18.522;2023-08-08T01:46:48;97807.84;;;12.10;85.69
81224;BME280;70698;44.402;18.522;2023-08-08T01:49:14;97813.28;;;12.08;85.56
81224;BME280;70698;44.402;18.522;2023-08-08T01:51:40;97806.53;;;12.05;85.23
81224;BME280;70698;44.402;18.522;2023-08-08T01:54:07;97809.69;;;12.01;85.37
81224;BME280;70698;44.402;18.522;2023-08-08T01:56:33;97803.59;;;12.00;85.44
81224;BME280;70698;44.402;18.522;2023-08-08T01:59:00;97796.59;;;11.93;85.62
81224;BME280;70698;44.402;18.522;2023-08-08T02:01:25;97798.41;;;11.92;85.85
81224;BME280;70698;44.402;18.522;2023-08-08T02:03:51;97790.66;;;11.91;85.98
81224;BME280;70698;44.402;18.522;2023-08-08T02:06:16;97779.38;;;11.82;86.16
81224;BME280;70698;44.402;18.522;2023-08-08T02:08:42;97795.94;;;11.91;85.64
81224;BME280;70698;44.402;18.522;2023-08-08T02:11:08;97793.31;;;11.91;85.50
81224;BME280;70698;44.402;18.522;2023-08-08T02:13:33;97805.25;;;11.79;85.41
81224;BME280;70698;44.402;18.522;2023-08-08T02:15:59;97798.03;;;11.73;85.72
81224;BME280;70698;44.402;18.522;2023-08-08T02:18:25;97806.88;;;11.72;85.54
81224;BME280;70698;44.402;18.522;2023-08-08T02:20:51;97801.31;;;11.75;85.28
81224;BME280;70698;44.402;18.522;2023-08-08T02:23:16;97793.22;;;11.76;85.01
81224;BME280;70698;44.402;18.522;2023-08-08T02:25:42;97787.81;;;11.78;84.91
81224;BME280;70698;44.402;18.522;2023-08-08T02:28:08;97798.84;;;11.73;84.91
81224;BME280;70698;44.402;18.522;2023-08-08T02:30:33;97782.94;;;11.58;85.45
81224;BME280;70698;44.402;18.522;2023-08-08T02:32:59;97798.59;;;11.60;85.57
81224;BME280;70698;44.402;18.522;2023-08-08T02:35:25;97802.34;;;11.65;85.41
81224;BME280;70698;44.402;18.522;2023-08-08T02:37:51;97796.25;;;11.65;85.55
81224;BME280;70698;44.402;18.522;2023-08-08T02:40:16;97797.06;;;11.65;85.30
81224;BME280;70698;44.402;18.522;2023-08-08T02:42:43;97802.66;;;11.62;85.38
81224;BME280;70698;44.402;18.522;2023-08-08T02:45:09;97801.31;;;11.66;85.08
81224;BME280;70698;44.402;18.522;2023-08-08T02:47:35;97810.56;;;11.62;85.15
81224;BME280;70698;44.402;18.522;2023-08-08T02:50:00;97807.94;;;11.62;84.95
81224;BME280;70698;44.402;18.522;2023-08-08T02:52:27;97805.97;;;11.56;84.95
81224;BME280;70698;44.402;18.522;2023-08-08T02:54:52;97826.06;;;11.57;84.83
81224;BME280;70698;44.402;18.522;2023-08-08T02:57:19;97819.97;;;11.57;85.04
81224;BME280;70698;44.402;18.522;2023-08-08T02:59:45;97822.09;;;11.61;84.78
81224;BME280;70698;44.402;18.522;2023-08-08T03:02:11;97816.50;;;11.56;84.52
81224;BME280;70698;44.402;18.522;2023-08-08T03:04:38;97823.94;;;11.53;84.82
81224;BME280;70698;44.402;18.522;2023-08-08T03:07:05;97834.81;;;11.50;84.93
81224;BME280;70698;44.402;18.522;2023-08-08T03:09:34;97841.22;;;11.47;85.14
81224;BME280;70698;44.402;18.522;2023-08-08T03:12:00;97837.78;;;11.47;85.12
81224;BME280;70698;44.402;18.522;2023-08-08T03:14:26;97830.44;;;11.34;85.44
81224;BME280;70698;44.402;18.522;2023-08-08T03:16:52;97837.66;;;11.40;84.22
81224;BME280;70698;44.402;18.522;2023-08-08T03:19:17;97841.94;;;11.33;84.00
81224;BME280;70698;44.402;18.522;2023-08-08T03:21:43;97852.31;;;11.35;83.79
81224;BME280;70698;44.402;18.522;2023-08-08T03:24:09;97856.03;;;11.48;82.20
81224;BME280;70698;44.402;18.522;2023-08-08T03:26:35;97845.72;;;11.39;82.24
81224;BME280;70698;44.402;18.522;2023-08-08T03:29:00;97857.91;;;11.32;82.04
81224;BME280;70698;44.402;18.522;2023-08-08T03:31:32;97859.59;;;11.25;82.71
81224;BME280;70698;44.402;18.522;2023-08-08T03:34:02;97865.88;;;11.15;83.50
81224;BME280;70698;44.402;18.522;2023-08-08T03:36:30;97861.06;;;11.11;84.44
81224;BME280;70698;44.402;18.522;2023-08-08T03:38:55;97852.72;;;11.07;84.02
81224;BME280;70698;44.402;18.522;2023-08-08T03:41:21;97840.38;;;11.08;84.41
81224;BME280;70698;44.402;18.522;2023-08-08T03:43:46;97848.94;;;11.10;84.69
81224;BME280;70698;44.402;18.522;2023-08-08T03:46:12;97846.78;;;11.13;83.61
81224;BME280;70698;44.402;18.522;2023-08-08T03:48:38;97836.28;;;11.05;82.90
81224;BME280;70698;44.402;18.522;2023-08-08T03:51:04;97839.72;;;11.14;82.73
81224;BME280;70698;44.402;18.522;2023-08-08T03:53:30;97827.38;;;11.14;82.97
81224;BME280;70698;44.402;18.522;2023-08-08T03:55:55;97842.19;;;11.15;82.72
81224;BME280;70698;44.402;18.522;2023-08-08T03:58:21;97847.75;;;11.12;82.87
81224;BME280;70698;44.402;18.522;2023-08-08T04:00:47;97845.00;;;10.98;83.76
81224;BME280;70698;44.402;18.522;2023-08-08T04:03:16;97848.31;;;11.00;83.62
81224;BME280;70698;44.402;18.522;2023-08-08T04:05:46;97846.31;;;11.02;83.32
81224;BME280;70698;44.402;18.522;2023-08-08T04:08:15;97839.44;;;11.01;83.15
81224;BME280;70698;44.402;18.522;2023-08-08T04:10:42;97838.59;;;10.92;83.41
81224;BME280;70698;44.402;18.522;2023-08-08T04:13:08;97839.59;;;10.99;82.76
81224;BME280;70698;44.402;18.522;2023-08-08T04:15:35;97848.28;;;11.08;82.58
81224;BME280;70698;44.402;18.522;2023-08-08T04:18:01;97851.22;;;11.13;82.82
81224;BME280;70698;44.402;18.522;2023-08-08T04:20:26;97861.59;;;11.14;83.07
81224;BME280;70698;44.402;18.522;2023-08-08T04:22:52;97867.84;;;11.13;82.96
81224;BME280;70698;44.402;18.522;2023-08-08T04:25:17;97869.28;;;11.16;82.71
81224;BME280;70698;44.402;18.522;2023-08-08T04:27:43;97871.59;;;11.11;82.83
81224;BME280;70698;44.402;18.522;2023-08-08T04:30:09;97872.41;;;11.11;82.95
81224;BME280;70698;44.402;18.522;2023-08-08T04:32:34;97881.47;;;11.09;84.56
81224;BME280;70698;44.402;18.522;2023-08-08T04:35:00;97877.22;;;11.08;84.78
81224;BME280;70698;44.402;18.522;2023-08-08T04:37:26;97883.78;;;11.20;85.40
81224;BME280;70698;44.402;18.522;2023-08-08T04:39:51;97885.03;;;11.40;84.03
81224;BME280;70698;44.402;18.522;2023-08-08T04:42:17;97899.94;;;11.56;83.32
81224;BME280;70698;44.402;18.522;2023-08-08T04:44:42;97906.31;;;11.61;82.48
81224;BME280;70698;44.402;18.522;2023-08-08T04:47:08;97905.31;;;11.79;82.07
81224;BME280;70698;44.402;18.522;2023-08-08T04:49:33;97890.34;;;11.79;81.98
81224;BME280;70698;44.402;18.522;2023-08-08T04:51:59;97892.28;;;11.85;81.67
81224;BME280;70698;44.402;18.522;2023-08-08T04:54:24;97907.88;;;11.95;79.89
81224;BME280;70698;44.402;18.522;2023-08-08T04:56:50;97904.75;;;11.91;79.60
81224;BME280;70698;44.402;18.522;2023-08-08T04:59:15;97907.88;;;11.95;80.19
81224;BME280;70698;44.402;18.522;2023-08-08T05:01:41;97917.19;;;12.05;79.94
81224;BME280;70698;44.402;18.522;2023-08-08T05:04:06;97918.28;;;12.19;79.84
81224;BME280;70698;44.402;18.522;2023-08-08T05:06:32;97930.41;;;12.28;80.10
81224;BME280;70698;44.402;18.522;2023-08-08T05:08:58;97918.88;;;12.29;80.10
81224;BME280;70698;44.402;18.522;2023-08-08T05:11:23;97924.75;;;12.39;79.49
81224;BME280;70698;44.402;18.522;2023-08-08T05:13:49;97927.13;;;12.26;79.84
81224;BME280;70698;44.402;18.522;2023-08-08T05:16:14;97928.69;;;12.43;80.07
81224;BME280;70698;44.402;18.522;2023-08-08T05:18:40;97918.28;;;12.42;79.69
81224;BME280;70698;44.402;18.522;2023-08-08T05:21:06;97924.69;;;12.47;79.59
81224;BME280;70698;44.402;18.522;2023-08-08T05:23:32;97919.53;;;12.54;77.79
81224;BME280;70698;44.402;18.522;2023-08-08T05:25:58;97923.28;;;12.60;78.10
81224;BME280;70698;44.402;18.522;2023-08-08T05:28:23;97932.13;;;12.67;77.39
81224;BME280;70698;44.402;18.522;2023-08-08T05:30:49;97910.97;;;12.75;76.09
81224;BME280;70698;44.402;18.522;2023-08-08T05:33:14;97921.75;;;12.88;76.74
81224;BME280;70698;44.402;18.522;2023-08-08T05:35:40;97925.84;;;12.90;78.23
81224;BME280;70698;44.402;18.522;2023-08-08T05:38:05;97940.13;;;12.96;79.21
81224;BME280;70698;44.402;18.522;2023-08-08T05:40:34;97931.22;;;12.97;78.57
81224;BME280;70698;44.402;18.522;2023-08-08T05:43:00;97946.69;;;13.00;77.78
81224;BME280;70698;44.402;18.522;2023-08-08T05:45:25;97950.03;;;13.17;76.44
81224;BME280;70698;44.402;18.522;2023-08-08T05:47:51;97955.00;;;13.34;76.89
81224;BME280;70698;44.402;18.522;2023-08-08T05:50:17;97946.59;;;13.31;77.67
81224;BME280;70698;44.402;18.522;2023-08-08T05:52:42;97952.00;;;13.52;76.26
81224;BME280;70698;44.402;18.522;2023-08-08T05:55:08;97955.38;;;13.61;74.73
81224;BME280;70698;44.402;18.522;2023-08-08T05:57:34;97944.19;;;13.73;74.40
81224;BME280;70698;44.402;18.522;2023-08-08T06:00:00;97946.19;;;13.86;74.11
81224;BME280;70698;44.402;18.522;2023-08-08T06:02:25;97940.00;;;13.94;74.04
81224;BME280;70698;44.402;18.522;2023-08-08T06:04:51;97948.91;;;14.07;74.33
81224;BME280;70698;44.402;18.522;2023-08-08T06:07:16;97950.50;;;14.23;74.84
81224;BME280;70698;44.402;18.522;2023-08-08T06:09:42;97953.69;;;14.33;75.05
81224;BME280;70698;44.402;18.522;2023-08-08T06:12:08;97946.56;;;14.34;75.46
81224;BME280;70698;44.402;18.522;2023-08-08T06:14:34;97939.44;;;14.49;75.38
81224;BME280;70698;44.402;18.522;2023-08-08T06:17:00;97935.03;;;14.56;75.92
81224;BME280;70698;44.402;18.522;2023-08-08T06:19:25;97937.19;;;14.67;73.37
81224;BME280;70698;44.402;18.522;2023-08-08T06:21:51;97947.88;;;14.80;73.37
81224;BME280;70698;44.402;18.522;2023-08-08T06:24:16;97949.63;;;14.94;73.35
81224;BME280;70698;44.402;18.522;2023-08-08T06:26:42;97957.47;;;15.02;73.93
81224;BME280;70698;44.402;18.522;2023-08-08T06:29:07;97953.59;;;15.05;73.73
81224;BME280;70698;44.402;18.522;2023-08-08T06:31:33;97944.47;;;15.07;73.77
81224;BME280;70698;44.402;18.522;2023-08-08T06:33:58;97960.47;;;15.21;72.75
81224;BME280;70698;44.402;18.522;2023-08-08T06:36:24;97961.44;;;15.13;73.80
81224;BME280;70698;44.402;18.522;2023-08-08T06:38:50;97962.84;;;15.16;74.42
81224;BME280;70698;44.402;18.522;2023-08-08T06:41:15;97948.84;;;15.22;73.11
81224;BME280;70698;44.402;18.522;2023-08-08T06:43:41;97953.41;;;15.28;72.62
81224;BME280;70698;44.402;18.522;2023-08-08T06:46:06;97963.72;;;15.44;70.96
81224;BME280;70698;44.402;18.522;2023-08-08T06:48:32;97963.00;;;15.57;71.00
81224;BME280;70698;44.402;18.522;2023-08-08T06:50:58;97965.84;;;15.55;70.67
81224;BME280;70698;44.402;18.522;2023-08-08T06:53:23;97964.28;;;15.67;68.66
81224;BME280;70698;44.402;18.522;2023-08-08T06:55:49;97967.28;;;15.58;67.33
81224;BME280;70698;44.402;18.522;2023-08-08T06:58:14;97964.91;;;15.69;68.90
81224;BME280;70698;44.402;18.522;2023-08-08T07:00:40;97953.94;;;15.72;70.21
81224;BME280;70698;44.402;18.522;2023-08-08T07:03:06;97962.47;;;15.74;69.93
81224;BME280;70698;44.402;18.522;2023-08-08T07:05:31;97965.78;;;15.76;70.93
81224;BME280;70698;44.402;18.522;2023-08-08T07:07:57;97958.00;;;15.68;71.53
81224;BME280;70698;44.402;18.522;2023-08-08T07:10:23;97967.41;;;15.77;72.76
81224;BME280;70698;44.402;18.522;2023-08-08T07:12:48;97960.22;;;15.71;71.89
81224;BME280;70698;44.402;18.522;2023-08-08T07:15:14;97960.88;;;15.80;71.93
81224;BME280;70698;44.402;18.522;2023-08-08T07:17:40;97965.38;;;15.79;72.22
81224;BME280;70698;44.402;18.522;2023-08-08T07:20:06;97962.47;;;15.74;72.02
81224;BME280;70698;44.402;18.522;2023-08-08T07:22:32;97960.88;;;15.73;72.06
81224;BME280;70698;44.402;18.522;2023-08-08T07:24:58;97964.75;;;15.77;71.63
81224;BME280;70698;44.402;18.522;2023-08-08T07:27:26;97959.53;;;15.90;71.98
81224;BME280;70698;44.402;18.522;2023-08-08T07:29:52;97954.41;;;15.89;71.50
81224;BME280;70698;44.402;18.522;2023-08-08T07:32:17;97961.81;;;16.00;71.06
81224;BME280;70698;44.402;18.522;2023-08-08T07:34:43;97961.66;;;16.08;72.12
81224;BME280;70698;44.402;18.522;2023-08-08T07:37:09;97961.94;;;16.26;70.45
81224;BME280;70698;44.402;18.522;2023-08-08T07:39:34;97957.94;;;16.50;71.51
81224;BME280;70698;44.402;18.522;2023-08-08T07:42:00;97953.94;;;16.67;71.18
81224;BME280;70698;44.402;18.522;2023-08-08T07:44:25;97958.06;;;16.83;69.88
81224;BME280;70698;44.402;18.522;2023-08-08T07:46:51;97950.31;;;16.88;68.48
81224;BME280;70698;44.402;18.522;2023-08-08T07:49:17;97957.03;;;16.97;67.75
81224;BME280;70698;44.402;18.522;2023-08-08T07:51:42;97951.94;;;17.02;66.00
81224;BME280;70698;44.402;18.522;2023-08-08T07:54:08;97947.66;;;17.08;67.23
81224;BME280;70698;44.402;18.522;2023-08-08T07:56:36;97952.34;;;17.32;66.42
81224;BME280;70698;44.402;18.522;2023-08-08T07:59:02;97947.03;;;17.32;67.23
81224;BME280;70698;44.402;18.522;2023-08-08T08:01:28;97947.41;;;17.55;68.85
81224;BME280;70698;44.402;18.522;2023-08-08T08:03:54;97926.97;;;17.76;65.90
81224;BME280;70698;44.402;18.522;2023-08-08T08:06:20;97936.13;;;17.80;63.99
81224;BME280;70698;44.402;18.522;2023-08-08T08:08:46;97925.69;;;17.91;62.26
81224;BME280;70698;44.402;18.522;2023-08-08T08:11:11;97916.28;;;17.89;60.49
81224;BME280;70698;44.402;18.522;2023-08-08T08:13:39;97924.16;;;18.15;60.73
81224;BME280;70698;44.402;18.522;2023-08-08T08:16:04;97910.84;;;18.15;54.78
81224;BME280;70698;44.402;18.522;2023-08-08T08:18:31;97918.84;;;18.15;55.42
81224;BME280;70698;44.402;18.522;2023-08-08T08:20:57;97916.84;;;18.04;55.83
81224;BME280;70698;44.402;18.522;2023-08-08T08:23:23;97912.13;;;18.06;55.75
81224;BME280;70698;44.402;18.522;2023-08-08T08:25:48;97922.75;;;18.13;56.98
81224;BME280;70698;44.402;18.522;2023-08-08T08:28:16;97920.59;;;18.34;57.06
81224;BME280;70698;44.402;18.522;2023-08-08T08:30:42;97915.69;;;18.31;53.69
81224;BME280;70698;44.402;18.522;2023-08-08T08:33:08;97918.75;;;18.35;52.22
81224;BME280;70698;44.402;18.522;2023-08-08T08:35:36;97924.53;;;18.63;53.01
81224;BME280;70698;44.402;18.522;2023-08-08T08:38:03;97914.72;;;18.64;52.94
81224;BME280;70698;44.402;18.522;2023-08-08T08:40:30;97920.22;;;18.69;52.31
81224;BME280;70698;44.402;18.522;2023-08-08T08:42:59;97915.34;;;18.90;51.97
81224;BME280;70698;44.402;18.522;2023-08-08T08:45:25;97925.56;;;18.93;49.75
81224;BME280;70698;44.402;18.522;2023-08-08T08:47:54;97913.56;;;18.46;50.58
81224;BME280;70698;44.402;18.522;2023-08-08T08:50:21;97915.13;;;18.67;51.97
81224;BME280;70698;44.402;18.522;2023-08-08T08:52:47;97923.50;;;18.96;50.41
81224;BME280;70698;44.402;18.522;2023-08-08T08:55:12;97921.56;;;19.09;49.17
81224;BME280;70698;44.402;18.522;2023-08-08T08:57:38;97923.13;;;18.92;48.53
81224;BME280;70698;44.402;18.522;2023-08-08T09:00:05;97909.06;;;19.10;50.00
81224;BME280;70698;44.402;18.522;2023-08-08T09:02:31;97914.97;;;19.37;51.06
81224;BME280;70698;44.402;18.522;2023-08-08T09:04:58;97922.38;;;19.34;50.50
81224;BME280;70698;44.402;18.522;2023-08-08T09:07:25;97901.81;;;19.42;51.18
81224;BME280;70698;44.402;18.522;2023-08-08T09:09:52;97916.84;;;19.97;52.70
81224;BME280;70698;44.402;18.522;2023-08-08T09:12:18;97912.91;;;19.82;49.55
81224;BME280;70698;44.402;18.522;2023-08-08T09:14:44;97922.59;;;19.94;51.59
81224;BME280;70698;44.402;18.522;2023-08-08T09:17:11;97923.25;;;20.26;50.89
81224;BME280;70698;44.402;18.522;2023-08-08T09:19:38;97923.44;;;20.43;49.66
81224;BME280;70698;44.402;18.522;2023-08-08T09:22:04;97917.09;;;20.44;47.77
81224;BME280;70698;44.402;18.522;2023-08-08T09:24:30;97911.03;;;20.37;46.93
81224;BME280;70698;44.402;18.522;2023-08-08T09:26:55;97913.84;;;20.42;48.52
81224;BME280;70698;44.402;18.522;2023-08-08T09:29:21;97914.56;;;20.12;47.64
81224;BME280;70698;44.402;18.522;2023-08-08T09:31:47;97918.09;;;20.31;50.63
81224;BME280;70698;44.402;18.522;2023-08-08T09:34:13;97902.88;;;20.32;49.12
81224;BME280;70698;44.402;18.522;2023-08-08T09:36:39;97915.53;;;20.18;47.66
81224;BME280;70698;44.402;18.522;2023-08-08T09:39:05;97911.16;;;20.24;49.12
81224;BME280;70698;44.402;18.522;2023-08-08T09:41:32;97917.72;;;20.57;48.43
81224;BME280;70698;44.402;18.522;2023-08-08T09:43:58;97912.88;;;20.66;49.29
81224;BME280;70698;44.402;18.522;2023-08-08T09:46:24;97914.56;;;20.90;46.90
81224;BME280;70698;44.402;18.522;2023-08-08T09:48:50;97915.97;;;20.63;47.18
81224;BME280;70698;44.402;18.522;2023-08-08T09:51:17;97913.78;;;21.13;47.28
81224;BME280;70698;44.402;18.522;2023-08-08T09:53:42;97913.72;;;21.43;45.91
81224;BME280;70698;44.402;18.522;2023-08-08T09:56:09;97913.13;;;21.29;44.80
81224;BME280;70698;44.402;18.522;2023-08-08T09:58:35;97900.34;;;21.20;42.55
81224;BME280;70698;44.402;18.522;2023-08-08T10:01:01;97913.25;;;21.58;44.61
81224;BME280;70698;44.402;18.522;2023-08-08T10:03:27;97914.38;;;21.73;44.98
81224;BME280;70698;44.402;18.522;2023-08-08T10:05:53;97913.50;;;21.56;45.07
81224;BME280;70698;44.402;18.522;2023-08-08T10:08:20;97907.06;;;21.69;45.77
81224;BME280;70698;44.402;18.522;2023-08-08T10:10:47;97903.72;;;21.62;44.46
81224;BME280;70698;44.402;18.522;2023-08-08T10:13:25;97904.16;;;21.47;45.23
81224;BME280;70698;44.402;18.522;2023-08-08T10:15:51;97912.66;;;21.67;44.32
81224;BME280;70698;44.402;18.522;2023-08-08T10:18:17;97910.41;;;22.11;44.50
81224;BME280;70698;44.402;18.522;2023-08-08T10:20:50;97907.25;;;22.02;43.64
81224;BME280;70698;44.402;18.522;2023-08-08T10:23:17;97906.94;;;21.17;43.49
81224;BME280;70698;44.402;18.522;2023-08-08T10:25:48;97901.66;;;20.46;45.91
81224;BME280;70698;44.402;18.522;2023-08-08T10:28:17;97903.91;;;20.60;45.49
81224;BME280;70698;44.402;18.522;2023-08-08T10:30:47;97898.03;;;21.35;44.41
81224;BME280;70698;44.402;18.522;2023-08-08T10:33:17;97892.75;;;21.98;41.84
81224;BME280;70698;44.402;18.522;2023-08-08T10:36:04;97885.34;;;22.17;41.11
81224;BME280;70698;44.402;18.522;2023-08-08T10:38:43;97885.22;;;22.80;40.97
81224;BME280;70698;44.402;18.522;2023-08-08T10:41:16;97894.97;;;22.86;38.80
81224;BME280;70698;44.402;18.522;2023-08-08T10:43:56;97893.66;;;22.89;38.69
81224;BME280;70698;44.402;18.522;2023-08-08T10:46:32;97899.81;;;22.72;41.18
81224;BME280;70698;44.402;18.522;2023-08-08T10:49:01;97884.00;;;22.88;38.86
81224;BME280;70698;44.402;18.522;2023-08-08T10:51:40;97884.88;;;21.57;37.95
81224;BME280;70698;44.402;18.522;2023-08-08T10:54:19;97883.19;;;20.86;43.17
81224;BME280;70698;44.402;18.522;2023-08-08T10:56:55;97884.03;;;21.79;45.35
81224;BME280;70698;44.402;18.522;2023-08-08T10:59:25;97880.69;;;21.61;42.28
81224;BME280;70698;44.402;18.522;2023-08-08T11:01:52;97883.78;;;22.32;41.25
81224;BME280;70698;44.402;18.522;2023-08-08T11:04:23;97885.28;;;23.02;44.31
81224;BME280;70698;44.402;18.522;2023-08-08T11:06:53;97865.72;;;22.85;41.91
81224;BME280;70698;44.402;18.522;2023-08-08T11:09:19;97873.13;;;23.66;38.97
81224;BME280;70698;44.402;18.522;2023-08-08T11:11:45;97855.34;;;23.60;39.06
81224;BME280;70698;44.402;18.522;2023-08-08T11:14:21;97848.13;;;24.04;38.39
81224;BME280;70698;44.402;18.522;2023-08-08T11:16:49;97850.66;;;24.64;36.43
81224;BME280;70698;44.402;18.522;2023-08-08T11:19:17;97852.84;;;23.37;38.19
81224;BME280;70698;44.402;18.522;2023-08-08T11:21:45;97861.97;;;22.12;40.59
81224;BME280;70698;44.402;18.522;2023-08-08T11:24:12;97865.94;;;21.46;42.40
81224;BME280;70698;44.402;18.522;2023-08-08T11:26:40;97868.59;;;21.12;42.98
81224;BME280;70698;44.402;18.522;2023-08-08T11:29:07;97864.84;;;20.89;42.13
81224;BME280;70698;44.402;18.522;2023-08-08T11:31:35;97854.34;;;20.65;41.24
81224;BME280;70698;44.402;18.522;2023-08-08T11:34:02;97860.41;;;20.83;42.75
81224;BME280;70698;44.402;18.522;2023-08-08T11:36:33;97859.44;;;21.19;42.87
81224;BME280;70698;44.402;18.522;2023-08-08T11:39:04;97845.78;;;20.86;43.36
81224;BME280;70698;44.402;18.522;2023-08-08T11:41:36;97852.84;;;21.97;46.21
81224;BME280;70698;44.402;18.522;2023-08-08T11:44:03;97842.47;;;23.07;42.91
81224;BME280;70698;44.402;18.522;2023-08-08T11:46:29;97846.97;;;23.56;42.93
81224;BME280;70698;44.402;18.522;2023-08-08T11:49:04;97832.94;;;23.33;41.93
81224;BME280;70698;44.402;18.522;2023-08-08T11:51:33;97829.00;;;23.02;38.55
81224;BME280;70698;44.402;18.522;2023-08-08T11:54:01;97827.00;;;23.47;39.57
81224;BME280;70698;44.402;18.522;2023-08-08T11:56:28;97827.16;;;23.41;39.01
81224;BME280;70698;44.402;18.522;2023-08-08T11:58:55;97820.47;;;23.82;37.87
81224;BME280;70698;44.402;18.522;2023-08-08T12:01:25;97815.88;;;23.39;37.00
81224;BME280;70698;44.402;18.522;2023-08-08T12:03:51;97812.03;;;22.96;38.65
81224;BME280;70698;44.402;18.522;2023-08-08T12:06:17;97811.81;;;22.36;41.10
81224;BME280;70698;44.402;18.522;2023-08-08T12:08:47;97814.75;;;21.55;42.32
81224;BME280;70698;44.402;18.522;2023-08-08T12:11:14;97808.66;;;21.31;43.00
81224;BME280;70698;44.402;18.522;2023-08-08T12:13:41;97821.72;;;22.36;41.73
81224;BME280;70698;44.402;18.522;2023-08-08T12:16:11;97819.00;;;23.14;39.11
81224;BME280;70698;44.402;18.522;2023-08-08T12:18:38;97803.13;;;23.89;37.53
81224;BME280;70698;44.402;18.522;2023-08-08T12:21:09;97804.16;;;25.38;37.11
81224;BME280;70698;44.402;18.522;2023-08-08T12:23:36;97798.44;;;24.87;35.79
81224;BME280;70698;44.402;18.522;2023-08-08T12:26:05;97789.91;;;24.63;34.70
81224;BME280;70698;44.402;18.522;2023-08-08T12:28:32;97796.38;;;24.67;36.47
81224;BME280;70698;44.402;18.522;2023-08-08T12:30:58;97780.91;;;24.48;38.07
81224;BME280;70698;44.402;18.522;2023-08-08T12:33:24;97790.31;;;24.82;37.60
81224;BME280;70698;44.402;18.522;2023-08-08T12:35:50;97774.91;;;25.04;36.63
81224;BME280;70698;44.402;18.522;2023-08-08T12:38:15;97781.75;;;25.27;37.19
81224;BME280;70698;44.402;18.522;2023-08-08T12:40:41;97788.06;;;25.48;37.64
81224;BME280;70698;44.402;18.522;2023-08-08T12:43:09;97781.75;;;25.79;35.48
81224;BME280;70698;44.402;18.522;2023-08-08T12:45:35;97774.84;;;26.08;35.28
81224;BME280;70698;44.402;18.522;2023-08-08T12:48:01;97772.47;;;26.37;34.04